createdAt,value
2022-10-10T00:00:53.289Z,9.5
2022-10-10T00:01:57.741Z,9.8
2022-10-10T00:03:02.085Z,10.2
2022-10-10T00:04:06.432Z,9.2
2022-10-10T00:05:10.776Z,8.9
2022-10-10T00:06:15.204Z,8.7
2022-10-10T00:07:19.526Z,9.2
2022-10-10T00:08:23.669Z,8.8
2022-10-10T00:09:27.876Z,8.6
2022-10-10T00:10:32.204Z,8.3
2022-10-10T00:11:36.460Z,8.3
2022-10-10T00:12:53.901Z,8.9
2022-10-10T00:13:58.165Z,8.4
2022-10-10T00:15:02.645Z,8.8
2022-10-10T00:16:09.669Z,9
2022-10-10T00:17:14.089Z,8.7
2022-10-10T00:18:18.448Z,8.4
2022-10-10T00:19:22.589Z,8.6
2022-10-10T00:20:26.928Z,8.3
2022-10-10T00:21:31.253Z,8.5
2022-10-10T00:22:35.498Z,8.5
2022-10-10T00:23:39.781Z,8.6
2022-10-10T00:24:44.076Z,8.5
2022-10-10T00:25:48.318Z,8.7
2022-10-10T00:26:52.669Z,8.6
2022-10-10T00:27:57.077Z,8.4
2022-10-10T00:29:01.460Z,8.6
2022-10-10T00:30:05.873Z,8.4
2022-10-10T00:31:10.424Z,8.2
2022-10-10T00:32:14.713Z,8.7
2022-10-10T00:33:19.050Z,8.5
2022-10-10T00:34:23.328Z,8.2
2022-10-10T00:35:27.504Z,7.9
2022-10-10T00:36:32.016Z,8.6
2022-10-10T00:37:36.308Z,8.1
2022-10-10T00:38:40.524Z,8.9
2022-10-10T00:41:35.442Z,9.2
2022-10-10T00:42:39.788Z,8.7
2022-10-10T00:43:44.029Z,8.5
2022-10-10T00:44:58.285Z,8
2022-10-10T00:46:12.673Z,8.7
2022-10-10T00:47:17.017Z,8.5
2022-10-10T00:48:21.245Z,8.2
2022-10-10T00:49:26.348Z,9
2022-10-10T00:50:30.869Z,9
2022-10-10T00:51:35.121Z,8.9
2022-10-10T00:52:39.309Z,8.4
2022-10-10T00:53:43.624Z,9.3
2022-10-10T00:54:47.717Z,9.4
2022-10-10T00:58:45.460Z,8.7
2022-10-10T00:59:49.659Z,8.8
2022-10-10T01:00:53.855Z,9
2022-10-10T01:01:58.092Z,9
2022-10-10T01:03:02.240Z,8.6
2022-10-10T01:04:09.281Z,9.4
2022-10-10T01:05:23.669Z,9.3
2022-10-10T01:06:27.964Z,9.4
2022-10-10T01:07:32.301Z,9.4
2022-10-10T01:08:39.566Z,8.8
2022-10-10T01:09:43.803Z,9.5
2022-10-10T01:10:47.952Z,9
2022-10-10T01:12:02.413Z,9.3
2022-10-10T01:13:16.880Z,9.2
2022-10-10T01:14:26.505Z,10.1
2022-10-10T01:15:42.252Z,9.7
2022-10-10T01:16:56.849Z,9
2022-10-10T01:18:06.319Z,8.5
2022-10-10T01:19:13.798Z,9.1
2022-10-10T01:20:23.159Z,9.3
2022-10-10T01:21:32.284Z,8.8
2022-10-10T01:22:46.700Z,9.3
2022-10-10T01:24:03.260Z,9.6
2022-10-10T01:25:17.756Z,9.1
2022-10-10T01:26:27.172Z,9.4
2022-10-10T01:27:36.336Z,9.3
2022-10-10T01:28:48.568Z,9.2
2022-10-10T01:29:57.833Z,8.7
2022-10-10T01:31:07.097Z,9.6
2022-10-10T01:32:11.308Z,9.3
2022-10-10T01:33:23.720Z,9.4
2022-10-10T01:34:28.018Z,8.9
2022-10-10T01:35:42.480Z,9.9
2022-10-10T01:36:51.844Z,9.3
2022-10-10T01:38:04.748Z,9.6
2022-10-10T01:39:14.089Z,9.5
2022-10-10T01:40:28.864Z,9.4
2022-10-10T01:41:35.869Z,9.4
2022-10-10T01:42:40.584Z,9.4
2022-10-10T01:43:47.812Z,9.4
2022-10-10T01:44:55.645Z,9.6
2022-10-10T01:46:00.008Z,9.3
2022-10-10T01:47:09.540Z,8.9
2022-10-10T01:48:14.004Z,9
2022-10-10T01:49:18.316Z,9.4
2022-10-10T01:50:25.000Z,8.5
2022-10-10T01:51:29.691Z,9.2
2022-10-10T01:52:44.080Z,9.1
2022-10-10T01:53:58.600Z,8.8
2022-10-10T01:55:13.052Z,9.3
2022-10-10T01:56:25.124Z,9.1
2022-10-10T01:57:34.361Z,9
2022-10-10T01:58:43.720Z,9.1
2022-10-10T01:59:52.987Z,9.4
2022-10-10T02:01:05.221Z,9.2
2022-10-10T02:02:17.391Z,9.2
2022-10-10T02:03:27.600Z,8.9
2022-10-10T02:04:32.001Z,8.9
2022-10-10T02:06:47.531Z,8.3
2022-10-10T02:07:56.919Z,9.1
2022-10-10T02:09:03.607Z,9
2022-10-10T02:10:08.015Z,9.3
2022-10-10T02:11:12.236Z,8.6
2022-10-10T02:12:16.469Z,8.8
2022-10-10T02:13:20.623Z,9.3
2022-10-10T02:14:24.897Z,9.4
2022-10-10T02:15:29.067Z,8.3
2022-10-10T02:16:40.733Z,8.3
2022-10-10T02:17:45.071Z,9
2022-10-10T02:18:49.349Z,8.7
2022-10-10T02:19:54.737Z,8.8
2022-10-10T02:20:58.944Z,8.7
2022-10-10T02:22:03.283Z,9.5
2022-10-10T02:23:07.939Z,8.8
2022-10-10T02:24:14.756Z,8.7
2022-10-10T02:25:19.427Z,8.9
2022-10-10T02:26:23.687Z,8.7
2022-10-10T02:27:28.001Z,8.9
2022-10-10T02:28:37.575Z,8.6
2022-10-10T02:29:49.516Z,8.9
2022-10-10T02:30:54.055Z,8.7
2022-10-10T02:31:58.535Z,8.4
2022-10-10T02:33:02.760Z,8.6
2022-10-10T02:34:07.103Z,8.9
2022-10-10T02:35:14.012Z,8.3
2022-10-10T02:36:23.487Z,8.3
2022-10-10T02:37:27.888Z,8.3
2022-10-10T02:38:32.220Z,8.3
2022-10-10T02:39:36.495Z,8.2
2022-10-10T02:40:40.851Z,7.8
2022-10-10T02:41:45.043Z,7.9
2022-10-10T02:42:49.738Z,8.3
2022-10-10T02:43:53.526Z,8
2022-10-10T02:45:00.234Z,7.9
2022-10-10T02:47:57.219Z,8.3
2022-10-10T02:49:01.652Z,7.9
2022-10-10T02:50:09.112Z,8.2
2022-10-10T02:51:13.547Z,8.1
2022-10-10T02:52:17.922Z,8.1
2022-10-10T02:53:23.967Z,7.5
2022-10-10T02:54:32.408Z,7.9
2022-10-10T02:55:39.135Z,7.8
2022-10-10T02:56:43.767Z,7.8
2022-10-10T02:57:49.359Z,8.3
2022-10-10T02:58:53.695Z,8.1
2022-10-10T02:59:58.020Z,8.4
2022-10-10T03:01:02.171Z,8.2
2022-10-10T03:02:06.463Z,7.7
2022-10-10T03:03:10.837Z,8.4
2022-10-10T03:04:15.339Z,8.1
2022-10-10T03:05:24.263Z,7.4
2022-10-10T03:06:28.671Z,7.7
2022-10-10T03:07:33.135Z,7.9
2022-10-10T03:08:37.747Z,7.8
2022-10-10T03:09:41.955Z,7.6
2022-10-10T03:10:46.159Z,7.8
2022-10-10T03:11:55.506Z,7.9
2022-10-10T03:12:59.833Z,7.8
2022-10-10T03:14:04.126Z,7.8
2022-10-10T03:15:11.584Z,8
2022-10-10T03:16:12.834Z,7.6
2022-10-10T03:17:17.060Z,8.1
2022-10-10T03:18:21.367Z,8.4
2022-10-10T03:19:25.559Z,7.8
2022-10-10T03:20:29.863Z,8.6
2022-10-10T03:21:34.143Z,8
2022-10-10T03:22:38.534Z,8.1
2022-10-10T03:23:43.177Z,8.6
2022-10-10T03:24:47.407Z,8.2
2022-10-10T03:25:51.714Z,8.7
2022-10-10T03:26:58.459Z,8.5
2022-10-10T03:28:02.894Z,8.3
2022-10-10T03:29:07.144Z,8.2
2022-10-10T03:30:11.399Z,8.3
2022-10-10T03:31:15.827Z,8.9
2022-10-10T03:32:20.111Z,8.3
2022-10-10T03:33:24.324Z,8
2022-10-10T03:34:33.206Z,9
2022-10-10T03:35:37.447Z,8.1
2022-10-10T03:36:41.659Z,8.5
2022-10-10T03:37:48.110Z,8.6
2022-10-10T03:38:52.430Z,8.1
2022-10-10T03:39:56.686Z,8.4
2022-10-10T03:41:01.000Z,8.8
2022-10-10T03:42:05.269Z,8.8
2022-10-10T03:43:09.574Z,8.7
2022-10-10T03:44:16.223Z,8.8
2022-10-10T03:45:23.743Z,9
2022-10-10T03:46:31.787Z,8.2
2022-10-10T03:47:38.138Z,9
2022-10-10T03:48:42.318Z,8.4
2022-10-10T03:49:46.491Z,9
2022-10-10T03:50:50.921Z,9.1
2022-10-10T03:51:55.194Z,8.6
2022-10-10T03:52:59.467Z,9
2022-10-10T03:54:03.746Z,8.9
2022-10-10T03:55:08.012Z,8.9
2022-10-10T03:56:12.363Z,8.8
2022-10-10T03:57:16.748Z,8.3
2022-10-10T03:58:23.759Z,8.6
2022-10-10T03:59:28.343Z,9.1
2022-10-10T04:00:32.634Z,8.8
2022-10-10T04:01:41.229Z,8.8
2022-10-10T04:02:45.413Z,8.7
2022-10-10T04:03:52.089Z,8.5
2022-10-10T04:04:54.241Z,8.6
2022-10-10T04:05:59.501Z,8.9
2022-10-10T04:07:08.366Z,8.3
2022-10-10T04:08:12.666Z,8.9
2022-10-10T04:09:16.942Z,9
2022-10-10T04:10:21.206Z,8.9
2022-10-10T04:11:25.514Z,8.6
2022-10-10T04:12:29.835Z,8.9
2022-10-10T04:13:34.214Z,8.5
2022-10-10T04:14:38.486Z,7.9
2022-10-10T04:15:42.678Z,8.3
2022-10-10T04:16:48.815Z,8.5
2022-10-10T04:17:53.138Z,7.9
2022-10-10T04:18:57.830Z,8
2022-10-10T04:20:02.113Z,8
2022-10-10T04:21:08.943Z,7.7
2022-10-10T04:22:13.230Z,7.6
2022-10-10T04:23:17.534Z,7.9
2022-10-10T04:24:21.806Z,7.7
2022-10-10T04:25:26.175Z,7.6
2022-10-10T04:26:30.482Z,8.1
2022-10-10T04:27:39.122Z,8
2022-10-10T04:28:43.505Z,8
2022-10-10T04:29:47.861Z,7.5
2022-10-10T04:30:52.086Z,8.1
2022-10-10T04:31:57.563Z,8.3
2022-10-10T04:33:02.010Z,8.4
2022-10-10T04:34:09.098Z,7.9
2022-10-10T04:35:13.313Z,8
2022-10-10T04:36:17.626Z,8.4
2022-10-10T04:37:22.906Z,7.9
2022-10-10T04:38:27.218Z,8
2022-10-10T04:39:31.546Z,8.2
2022-10-10T04:40:36.166Z,8
2022-10-10T04:41:40.406Z,7.7
2022-10-10T04:42:44.754Z,7.7
2022-10-10T04:43:48.954Z,7.9
2022-10-10T04:44:53.330Z,8.4
2022-10-10T04:45:57.706Z,7.7
2022-10-10T04:47:02.018Z,7.5
2022-10-10T04:48:06.282Z,8.1
2022-10-10T04:49:14.478Z,7.9
2022-10-10T04:50:19.139Z,8.1
2022-10-10T04:51:23.382Z,8.1
2022-10-10T04:52:27.760Z,8.4
2022-10-10T04:53:32.061Z,8.9
2022-10-10T04:57:28.580Z,8.4
2022-10-10T04:58:36.162Z,8.4
2022-10-10T04:59:40.595Z,8.7
2022-10-10T05:00:45.006Z,8.9
2022-10-10T05:01:52.183Z,8.4
2022-10-10T05:02:56.850Z,8.9
2022-10-10T05:04:01.590Z,9
2022-10-10T05:05:05.938Z,9.2
2022-10-10T05:06:10.214Z,9.2
2022-10-10T05:07:14.603Z,9
2022-10-10T05:08:18.878Z,9
2022-10-10T05:09:23.236Z,8.8
2022-10-10T05:11:31.278Z,8.7
2022-10-10T05:12:35.657Z,9.3
2022-10-10T05:13:43.594Z,9.1
2022-10-10T05:14:48.432Z,8.4
2022-10-10T05:15:52.321Z,8.9
2022-10-10T05:16:56.644Z,8.3
2022-10-10T05:18:00.926Z,8.4
2022-10-10T05:19:05.807Z,8.4
2022-10-10T05:20:10.065Z,9.1
2022-10-10T05:21:14.246Z,8.4
2022-10-10T05:22:19.402Z,8.9
2022-10-10T05:23:23.862Z,8.7
2022-10-10T05:24:28.098Z,8.8
2022-10-10T05:25:32.611Z,9
2022-10-10T05:26:40.967Z,8.8
2022-10-10T05:27:41.234Z,8.7
2022-10-10T05:28:45.688Z,8.6
2022-10-10T05:29:49.947Z,8.8
2022-10-10T05:30:54.139Z,8.9
2022-10-10T05:31:58.382Z,8.6
2022-10-10T05:33:02.498Z,8.5
2022-10-10T05:34:07.065Z,9.1
2022-10-10T05:35:11.357Z,8.3
2022-10-10T05:36:16.089Z,8.7
2022-10-10T05:37:20.842Z,8.2
2022-10-10T05:38:25.835Z,7.7
2022-10-10T05:39:29.994Z,8.4
2022-10-10T05:40:34.458Z,8.6
2022-10-10T05:41:41.866Z,8.4
2022-10-10T05:42:46.114Z,8.4
2022-10-10T05:43:51.498Z,8.3
2022-10-10T05:44:55.762Z,8.3
2022-10-10T05:46:52.306Z,7.8
2022-10-10T05:47:58.063Z,8.1
2022-10-10T05:49:02.210Z,8.7
2022-10-10T05:50:06.340Z,7.9
2022-10-10T05:51:15.418Z,8.5
2022-10-10T05:52:19.718Z,8.1
2022-10-10T05:53:23.843Z,7.9
2022-10-10T05:54:28.162Z,8.2
2022-10-10T05:55:32.390Z,8.6
2022-10-10T05:56:36.598Z,8.4
2022-10-10T05:57:41.069Z,7.7
2022-10-10T05:58:45.238Z,8.1
2022-10-10T05:59:49.563Z,7.9
2022-10-10T06:00:53.830Z,7.9
2022-10-10T06:03:01.734Z,7.7
2022-10-10T06:04:05.947Z,7.8
2022-10-10T06:05:11.506Z,8.7
2022-10-10T06:06:15.847Z,8.1
2022-10-10T06:07:20.322Z,8.1
2022-10-10T06:09:28.335Z,8.8
2022-10-10T06:10:32.645Z,8.6
2022-10-10T06:11:37.040Z,8.6
2022-10-10T06:12:41.500Z,8.9
2022-10-10T06:13:46.281Z,9.1
2022-10-10T06:14:50.517Z,8.7
2022-10-10T06:15:54.774Z,9
2022-10-10T06:16:59.149Z,8.5
2022-10-10T06:18:03.525Z,9.3
2022-10-10T06:19:11.399Z,9
2022-10-10T06:20:12.641Z,9.1
2022-10-10T06:21:17.660Z,9.4
2022-10-10T06:22:21.960Z,8.9
2022-10-10T06:23:26.314Z,9
2022-10-10T06:24:30.649Z,9
2022-10-10T06:25:40.355Z,9.4
2022-10-10T06:26:39.152Z,8.8
2022-10-10T06:27:43.336Z,9.6
2022-10-10T06:28:47.620Z,8.8
2022-10-10T06:29:51.976Z,9
2022-10-10T06:30:56.376Z,8.9
2022-10-10T06:32:00.696Z,9.1
2022-10-10T06:33:05.045Z,9.7
2022-10-10T06:34:09.548Z,8.8
2022-10-10T06:35:13.947Z,8.9
2022-10-10T06:36:18.472Z,9.1
2022-10-10T06:37:23.724Z,8.6
2022-10-10T06:38:28.752Z,9.3
2022-10-10T06:40:36.647Z,9.3
2022-10-10T06:41:40.960Z,8.8
2022-10-10T06:42:45.244Z,8.6
2022-10-10T06:43:49.621Z,8.8
2022-10-10T06:44:53.824Z,8.6
2022-10-10T06:45:58.192Z,8.1
2022-10-10T06:47:02.493Z,8.2
2022-10-10T06:48:06.888Z,8.3
2022-10-10T06:49:11.694Z,8.3
2022-10-10T06:50:16.635Z,8.4
2022-10-10T06:51:20.945Z,7.8
2022-10-10T06:52:25.278Z,8.1
2022-10-10T06:53:29.552Z,8.1
2022-10-10T06:54:33.953Z,7.6
2022-10-10T06:55:38.242Z,7.9
2022-10-10T06:56:42.449Z,8
2022-10-10T06:57:46.717Z,7.8
2022-10-10T06:58:51.217Z,7.8
2022-10-10T07:00:59.241Z,7.8
2022-10-10T07:02:03.644Z,8
2022-10-10T07:03:08.013Z,7.7
2022-10-10T07:04:12.659Z,8
2022-10-10T07:05:17.373Z,8.2
2022-10-10T07:06:22.038Z,8.4
2022-10-10T07:07:26.589Z,8
2022-10-10T07:08:31.026Z,8.4
2022-10-10T07:09:35.413Z,8.3
2022-10-10T07:10:40.469Z,8.1
2022-10-10T07:11:45.029Z,8.3
2022-10-10T07:12:49.247Z,8.8
2022-10-10T07:13:54.193Z,8.6
2022-10-10T07:14:58.614Z,8.4
2022-10-10T07:16:03.065Z,9.4
2022-10-10T07:17:07.495Z,8.4
2022-10-10T07:18:11.893Z,8.3
2022-10-10T07:19:16.221Z,8.5
2022-10-10T07:20:20.507Z,8.6
2022-10-10T07:21:25.277Z,8.1
2022-10-10T07:22:29.565Z,8.3
2022-10-10T07:23:34.152Z,8.4
2022-10-10T07:24:38.557Z,8.4
2022-10-10T07:25:42.881Z,8.5
2022-10-10T07:26:47.325Z,8.8
2022-10-10T07:27:51.945Z,8
2022-10-10T07:28:56.417Z,8.3
2022-10-10T07:30:00.684Z,8.1
2022-10-10T07:31:05.216Z,7.8
2022-10-10T07:32:09.756Z,8.3
2022-10-10T07:33:14.437Z,7.7
2022-10-10T07:34:18.848Z,8.6
2022-10-10T07:35:23.193Z,7.6
2022-10-10T07:36:27.936Z,8.2
2022-10-10T07:37:32.211Z,8.1
2022-10-10T07:38:36.608Z,8.1
2022-10-10T07:39:40.953Z,8.5
2022-10-10T07:40:45.230Z,7.8
2022-10-10T07:41:50.204Z,7.9
2022-10-10T07:42:54.582Z,7.6
2022-10-10T07:43:59.049Z,7.7
2022-10-10T07:45:03.653Z,7.7
2022-10-10T07:46:09.764Z,8
2022-10-10T07:47:17.800Z,7.6
2022-10-10T07:48:22.528Z,7.8
2022-10-10T07:49:27.784Z,8
2022-10-10T07:50:32.176Z,7.7
2022-10-10T07:51:36.713Z,7.9
2022-10-10T07:52:44.477Z,7.6
2022-10-10T07:53:48.701Z,8.1
2022-10-10T07:54:52.923Z,7.8
2022-10-10T07:55:57.580Z,8.5
2022-10-10T07:57:01.828Z,8.2
2022-10-10T07:58:06.096Z,8.5
2022-10-10T07:59:13.535Z,8.2
2022-10-10T08:00:17.912Z,7.7
2022-10-10T08:01:22.244Z,7.6
2022-10-10T08:02:26.577Z,8.1
2022-10-10T08:03:30.932Z,7.6
2022-10-10T08:04:35.321Z,8
2022-10-10T08:05:39.531Z,7.9
2022-10-10T08:06:43.984Z,7.9
2022-10-10T08:07:48.370Z,7.9
2022-10-10T08:08:52.646Z,7.9
2022-10-10T08:09:56.707Z,7.9
2022-10-10T08:11:01.135Z,7.9
2022-10-10T08:12:05.350Z,7.9
2022-10-10T08:13:09.576Z,7.9
2022-10-10T08:14:13.819Z,7.9
2022-10-10T08:15:18.323Z,7.9
2022-10-10T08:16:22.599Z,7.9
2022-10-10T08:17:27.219Z,7.9
2022-10-10T08:18:31.584Z,7.9
2022-10-10T08:19:36.185Z,7.9
2022-10-10T08:20:40.442Z,7.9
2022-10-10T08:21:45.108Z,7.9
2022-10-10T08:22:49.618Z,7.9
2022-10-10T08:23:53.606Z,7.9
2022-10-10T08:24:57.701Z,7.9
2022-10-10T08:26:01.997Z,7.9
2022-10-10T08:27:06.266Z,7.9
2022-10-10T08:28:10.627Z,7.9
2022-10-10T08:29:14.844Z,7.9
2022-10-10T08:30:19.166Z,7.9
2022-10-10T08:31:23.360Z,7.9
2022-10-10T08:32:28.132Z,7.9
2022-10-10T08:33:32.328Z,7.9
2022-10-10T08:34:36.606Z,7.9
2022-10-10T08:35:41.937Z,7.9
2022-10-10T08:36:46.441Z,7.9
2022-10-10T08:37:50.736Z,7.9
2022-10-10T08:38:55.035Z,7.9
2022-10-10T08:39:59.153Z,7.9
2022-10-10T08:41:03.400Z,7.9
2022-10-10T08:42:07.748Z,7.9
2022-10-10T08:43:14.608Z,7.9
2022-10-10T08:44:18.875Z,7.9
2022-10-10T08:45:23.145Z,7.9
2022-10-10T08:46:27.561Z,7.9
2022-10-10T08:47:37.040Z,7.9
2022-10-10T08:48:44.584Z,7.9
2022-10-10T08:49:48.847Z,7.9
2022-10-10T08:50:55.909Z,7.9
2022-10-10T08:52:00.163Z,7.9
2022-10-10T08:54:16.637Z,7.9
2022-10-10T08:56:29.664Z,7.9
2022-10-10T08:57:34.001Z,6.6
2022-10-10T08:58:43.524Z,7.2
2022-10-10T08:59:47.780Z,6.9
2022-10-10T09:00:52.017Z,7
2022-10-10T09:02:17.427Z,7.5
2022-10-10T09:03:18.495Z,7.1
2022-10-10T09:04:27.842Z,7.1
2022-10-10T09:05:31.993Z,7.2
2022-10-10T09:06:41.359Z,7
2022-10-10T09:07:53.536Z,7
2022-10-10T09:09:00.685Z,7.2
2022-10-10T09:10:13.312Z,7.4
2022-10-10T09:11:27.795Z,7.5
2022-10-10T09:12:37.590Z,7.2
2022-10-10T09:13:49.667Z,7.7
2022-10-10T09:15:02.339Z,7.3
2022-10-10T09:16:08.923Z,7.3
2022-10-10T09:17:18.418Z,7.1
2022-10-10T09:18:27.659Z,7.2
2022-10-10T09:19:42.063Z,7.2
2022-10-10T09:20:52.264Z,7.4
2022-10-10T09:22:02.007Z,7
2022-10-10T09:23:06.320Z,7.5
2022-10-10T09:24:15.692Z,7.4
2022-10-10T09:25:23.294Z,6.9
2022-10-10T09:26:35.808Z,7.1
2022-10-10T09:27:43.388Z,7.5
2022-10-10T09:28:47.965Z,7
2022-10-10T09:30:03.073Z,7.7
2022-10-10T09:31:17.992Z,7.2
2022-10-10T09:32:30.232Z,7.6
2022-10-10T09:33:34.588Z,7.3
2022-10-10T09:34:39.969Z,7.3
2022-10-10T09:35:49.760Z,7.1
2022-10-10T09:36:57.302Z,8
2022-10-10T09:37:59.045Z,6.9
2022-10-10T09:39:03.395Z,7.7
2022-10-10T09:40:13.087Z,7.5
2022-10-10T09:41:27.480Z,7.9
2022-10-10T09:42:31.867Z,7.9
2022-10-10T09:43:36.144Z,7.6
2022-10-10T09:44:40.383Z,7.3
2022-10-10T09:45:45.100Z,7.6
2022-10-10T09:46:49.360Z,6.9
2022-10-10T09:47:53.715Z,7.3
2022-10-10T09:49:02.172Z,7.4
2022-10-10T09:50:07.397Z,7.8
2022-10-10T09:51:15.844Z,7.4
2022-10-10T09:52:20.120Z,8
2022-10-10T09:53:27.133Z,7.4
2022-10-10T09:54:31.426Z,7.5
2022-10-10T09:55:35.706Z,7.3
2022-10-10T09:56:40.016Z,7.5
2022-10-10T09:57:51.952Z,7.7
2022-10-10T09:58:59.488Z,7.4
2022-10-10T10:00:04.718Z,7.6
2022-10-10T10:01:16.454Z,7.4
2022-10-10T10:02:33.260Z,8.6
2022-10-10T10:03:37.502Z,8.4
2022-10-10T10:04:41.982Z,8.3
2022-10-10T10:05:46.208Z,7.7
2022-10-10T10:06:56.753Z,8.5
2022-10-10T10:08:03.790Z,7.9
2022-10-10T10:09:07.999Z,7.6
2022-10-10T10:10:12.230Z,7.9
2022-10-10T10:13:13.697Z,6.9
2022-10-10T10:14:28.189Z,6.6
2022-10-10T10:15:32.521Z,6.5
2022-10-10T10:18:26.529Z,7.2
2022-10-10T10:19:32.254Z,7.4
2022-10-10T10:20:36.341Z,7.6
2022-10-10T10:21:40.437Z,7.2
2022-10-10T10:27:31.857Z,8
2022-10-10T10:28:36.129Z,7.4
2022-10-10T10:32:09.610Z,7.5
2022-10-10T10:33:23.845Z,7.2
2022-10-10T10:34:38.169Z,7.4
2022-10-10T10:35:52.481Z,7.4
2022-10-10T10:37:01.934Z,6.8
2022-10-10T10:38:20.552Z,6.1
2022-10-10T10:39:34.849Z,5.8
2022-10-10T10:42:09.352Z,6.3
2022-10-10T10:43:18.896Z,6.4
2022-10-10T10:44:33.240Z,5.9
2022-10-10T10:45:42.364Z,5.8
2022-10-10T10:46:56.496Z,5.7
2022-10-10T10:48:03.237Z,7
2022-10-10T10:49:19.658Z,6.4
2022-10-10T10:54:06.719Z,6.8
2022-10-10T10:55:16.057Z,6.6
2022-10-10T10:56:26.523Z,7.3
2022-10-10T10:57:40.757Z,6.9
2022-10-10T10:59:10.611Z,6.6
2022-10-10T11:00:21.234Z,6.8
2022-10-10T11:01:20.049Z,6.7
2022-10-10T11:02:37.183Z,6.7
2022-10-10T11:05:15.511Z,6.5
2022-10-10T11:05:21.819Z,6.6
2022-10-10T11:06:08.034Z,6.8
2022-10-10T11:07:21.182Z,6.4
2022-10-10T11:08:29.583Z,6.8
2022-10-10T11:09:49.431Z,6.7
2022-10-10T11:10:43.335Z,6.8
2022-10-10T11:13:41.959Z,6.4
2022-10-10T11:14:51.348Z,6.3
2022-10-10T11:16:06.309Z,6
2022-10-10T11:17:05.588Z,6.4
2022-10-10T11:18:19.896Z,6.4
2022-10-10T11:21:18.731Z,7
2022-10-10T11:23:42.200Z,6.9
2022-10-10T11:24:49.612Z,6.7
2022-10-10T11:26:02.748Z,7.5
2022-10-10T11:27:07.180Z,7
2022-10-10T11:28:20.300Z,7
2022-10-10T11:29:25.465Z,6.9
2022-10-10T11:30:32.743Z,6.9
2022-10-10T11:31:37.091Z,7.1
2022-10-10T11:32:49.408Z,7
2022-10-10T11:33:57.361Z,6.7
2022-10-10T11:35:02.895Z,6.6
2022-10-10T11:36:17.259Z,7.1
2022-10-10T11:37:21.635Z,7.4
2022-10-10T11:38:25.952Z,7
2022-10-10T11:39:40.414Z,7.3
2022-10-10T11:40:44.648Z,7.2
2022-10-10T11:41:51.903Z,6.5
2022-10-10T11:42:59.495Z,7.1
2022-10-10T11:44:10.703Z,6.6
2022-10-10T11:45:22.947Z,6.6
2022-10-10T11:46:27.203Z,6.9
2022-10-10T11:47:36.675Z,7.1
2022-10-10T11:48:43.759Z,6.6
2022-10-10T11:49:59.979Z,6.5
2022-10-10T11:51:11.731Z,5.9
2022-10-10T11:52:33.860Z,6.6
2022-10-10T11:53:25.899Z,6.7
2022-10-10T11:54:35.225Z,6.8
2022-10-10T11:55:42.043Z,6.4
2022-10-10T11:56:52.576Z,6.6
2022-10-10T11:57:56.918Z,6.3
2022-10-10T11:59:01.663Z,6.4
2022-10-10T12:00:08.763Z,6.7
2022-10-10T12:01:13.377Z,6.6
2022-10-10T12:02:24.396Z,6.5
2022-10-10T12:05:49.645Z,6.8
2022-10-10T12:07:09.055Z,6
2022-10-10T12:08:18.485Z,7
2022-10-10T12:09:24.072Z,6.6
2022-10-10T12:10:31.143Z,6.5
2022-10-10T12:14:41.527Z,6.7
2022-10-10T12:17:43.864Z,5.9
2022-10-10T12:18:48.548Z,6.2
2022-10-10T12:19:52.719Z,6.5
2022-10-10T12:20:57.627Z,6.3
2022-10-10T12:22:07.667Z,6.5
2022-10-10T12:23:11.873Z,7
2022-10-10T12:24:23.676Z,6.6
2022-10-10T12:25:28.154Z,6.7
2022-10-10T12:26:35.416Z,6.5
2022-10-10T12:27:44.626Z,7.2
2022-10-10T12:28:58.991Z,6.9
2022-10-10T12:30:06.120Z,6.7
2022-10-10T12:31:10.380Z,6.6
2022-10-10T12:32:17.496Z,6.3
2022-10-10T12:33:21.727Z,7.1
2022-10-10T12:34:33.539Z,6.7
2022-10-10T12:35:43.732Z,7.1
2022-10-10T12:36:52.096Z,7.3
2022-10-10T12:37:59.959Z,6.8
2022-10-10T12:39:10.848Z,6.3
2022-10-10T12:40:15.103Z,6.3
2022-10-10T12:41:19.387Z,6.4
2022-10-10T12:42:27.523Z,6.5
2022-10-10T12:43:34.189Z,6.2
2022-10-10T12:44:43.907Z,6.3
2022-10-10T12:45:48.805Z,6.6
2022-10-10T12:47:06.940Z,6.8
2022-10-10T12:48:14.063Z,6.5
2022-10-10T12:49:18.187Z,7
2022-10-10T12:50:25.410Z,6.6
2022-10-10T12:51:32.052Z,6.6
2022-10-10T12:52:37.222Z,6.5
2022-10-10T12:53:46.993Z,7.2
2022-10-10T12:54:54.418Z,7.4
2022-10-10T12:56:05.245Z,6.8
2022-10-10T12:57:09.519Z,6.3
2022-10-10T12:58:25.990Z,7
2022-10-10T12:59:28.700Z,6.4
2022-10-10T13:01:03.680Z,6.4
2022-10-10T13:02:07.703Z,6.9
2022-10-10T13:03:16.927Z,6.6
2022-10-10T13:04:26.931Z,6.9
2022-10-10T13:05:31.231Z,6.6
2022-10-10T13:06:35.556Z,6.6
2022-10-10T13:07:42.662Z,6.6
2022-10-10T13:08:49.275Z,6.3
2022-10-10T13:09:53.447Z,6.7
2022-10-10T13:10:57.768Z,7.4
2022-10-10T13:12:05.302Z,7.2
2022-10-10T13:13:09.495Z,6.7
2022-10-10T13:14:15.023Z,6.8
2022-10-10T13:15:19.371Z,6.9
2022-10-10T13:16:23.641Z,6.9
2022-10-10T13:17:28.008Z,6.3
2022-10-10T13:18:37.447Z,6.6
2022-10-10T13:19:50.107Z,6.3
2022-10-10T13:20:54.338Z,6.4
2022-10-10T13:21:58.692Z,6.1
2022-10-10T13:23:02.947Z,6.3
2022-10-10T13:24:07.203Z,6.3
2022-10-10T13:25:11.591Z,6.9
2022-10-10T13:26:15.935Z,6
2022-10-10T13:27:22.989Z,6.5
2022-10-10T13:28:30.273Z,6.5
2022-10-10T13:29:34.395Z,6.1
2022-10-10T13:30:38.838Z,6.5
2022-10-10T13:31:43.067Z,6.5
2022-10-10T13:32:47.314Z,6.5
2022-10-10T13:33:54.714Z,6.1
2022-10-10T13:35:09.200Z,6.6
2022-10-10T13:36:13.467Z,5.8
2022-10-10T13:37:20.523Z,6.4
2022-10-10T13:38:28.022Z,5.8
2022-10-10T13:39:36.991Z,6.6
2022-10-10T13:40:41.383Z,6.2
2022-10-10T13:41:45.651Z,6.1
2022-10-10T13:42:49.910Z,6.2
2022-10-10T13:43:54.119Z,6.2
2022-10-10T13:44:58.336Z,5.5
2022-10-10T13:46:02.603Z,5.2
2022-10-10T13:47:07.095Z,5.1
2022-10-10T13:48:21.430Z,5.8
2022-10-10T13:49:27.515Z,5.2
2022-10-10T13:50:31.770Z,5.6
2022-10-10T13:51:40.991Z,6.1
2022-10-10T13:52:45.414Z,6
2022-10-10T13:53:49.676Z,6.1
2022-10-10T13:54:53.874Z,5.9
2022-10-10T13:55:58.026Z,5.9
2022-10-10T13:57:07.435Z,5.4
2022-10-10T13:58:19.175Z,5.4
2022-10-10T13:59:26.490Z,5.6
2022-10-10T14:00:30.699Z,5.5
2022-10-10T14:01:34.882Z,5.6
2022-10-10T14:02:45.778Z,5.1
2022-10-10T14:03:49.891Z,5.3
2022-10-10T14:04:57.235Z,5.6
2022-10-10T14:06:04.303Z,5.6
2022-10-10T14:07:09.847Z,5.2
2022-10-10T14:08:21.940Z,5.7
2022-10-10T14:09:29.007Z,5.2
2022-10-10T14:10:33.203Z,5.7
2022-10-10T14:11:37.351Z,5.6
2022-10-10T14:12:44.520Z,5.5
2022-10-10T14:13:51.546Z,5.4
2022-10-10T14:15:01.774Z,6.1
2022-10-10T14:16:06.258Z,5.6
2022-10-10T14:17:15.567Z,5.7
2022-10-10T14:18:19.797Z,5.5
2022-10-10T14:19:24.078Z,5.9
2022-10-10T14:20:28.367Z,5.5
2022-10-10T14:21:32.682Z,5.8
2022-10-10T14:22:36.912Z,5.7
2022-10-10T14:23:41.267Z,5.5
2022-10-10T14:24:45.595Z,5.8
2022-10-10T14:26:57.542Z,5.1
2022-10-10T14:28:04.438Z,5.1
2022-10-10T14:29:18.783Z,5.4
2022-10-10T14:30:23.347Z,5.9
2022-10-10T14:31:27.851Z,5.5
2022-10-10T14:32:32.058Z,5.4
2022-10-10T14:33:36.240Z,5.4
2022-10-10T14:34:40.343Z,5.5
2022-10-10T14:35:44.545Z,5.8
2022-10-10T14:36:48.821Z,5.4
2022-10-10T14:37:57.418Z,5.4
2022-10-10T14:39:01.683Z,5.6
2022-10-10T14:40:05.941Z,5.5
2022-10-10T14:41:15.255Z,5.6
2022-10-10T14:42:19.440Z,5.6
2022-10-10T14:43:23.610Z,5.9
2022-10-10T14:44:28.494Z,5.5
2022-10-10T14:45:32.768Z,5.2
2022-10-10T14:46:38.646Z,5.2
2022-10-10T14:47:42.813Z,5.4
2022-10-10T14:48:47.363Z,5.5
2022-10-10T14:49:51.515Z,5.6
2022-10-10T14:50:55.777Z,5.9
2022-10-10T14:52:00.394Z,5.5
2022-10-10T14:53:04.811Z,6.1
2022-10-10T14:54:09.928Z,5.6
2022-10-10T14:56:17.312Z,6.2
2022-10-10T14:57:21.403Z,6.7
2022-10-10T14:58:25.864Z,6.9
2022-10-10T14:59:46.912Z,6.6
2022-10-10T15:00:34.438Z,7
2022-10-10T15:01:39.251Z,6.2
2022-10-10T15:02:45.710Z,6
2022-10-10T15:03:47.630Z,6.3
2022-10-10T15:04:51.942Z,6.1
2022-10-10T15:05:56.278Z,6.3
2022-10-10T15:08:04.189Z,5.9
2022-10-10T15:09:21.922Z,6.3
2022-10-10T15:10:34.483Z,6.2
2022-10-10T15:11:17.154Z,5.7
2022-10-10T15:12:21.505Z,6.3
2022-10-10T15:13:26.085Z,6.5
2022-10-10T15:14:32.961Z,6.1
2022-10-10T15:15:37.461Z,6.4
2022-10-10T15:16:41.704Z,6.5
2022-10-10T15:17:45.969Z,6.3
2022-10-10T15:18:54.582Z,6.6
2022-10-10T15:19:54.766Z,6.4
2022-10-10T15:20:59.179Z,6.7
2022-10-10T15:22:03.162Z,7
2022-10-10T15:23:07.546Z,6.3
2022-10-10T15:24:11.685Z,7.1
2022-10-10T15:25:16.027Z,7
2022-10-10T15:27:23.851Z,7.6
2022-10-10T15:28:31.001Z,6.9
2022-10-10T15:29:35.269Z,7.9
2022-10-10T15:30:42.849Z,7.4
2022-10-10T15:31:46.914Z,7.8
2022-10-10T15:32:50.961Z,7.7
2022-10-10T15:33:55.114Z,8.2
2022-10-10T15:34:59.357Z,7.6
2022-10-10T15:36:09.302Z,7.6
2022-10-10T15:37:08.454Z,8.1
2022-10-10T15:38:12.806Z,7.7
2022-10-10T15:39:17.154Z,7
2022-10-10T15:40:21.710Z,7
2022-10-10T15:41:26.019Z,7.6
2022-10-10T15:42:30.248Z,7.8
2022-10-10T15:43:34.660Z,7.8
2022-10-10T15:44:41.465Z,7.2
2022-10-10T15:45:55.751Z,7.4
2022-10-10T15:46:50.198Z,7.6
2022-10-10T15:47:54.429Z,7.5
2022-10-10T15:48:58.646Z,7.8
2022-10-10T15:50:02.906Z,7.5
2022-10-10T15:51:07.446Z,8.1
2022-10-10T15:52:11.621Z,7.9
2022-10-10T15:53:15.942Z,7.6
2022-10-10T15:54:20.197Z,8.1
2022-10-10T15:55:24.485Z,7.7
2022-10-10T15:56:28.995Z,8.6
2022-10-10T15:57:33.165Z,7.8
2022-10-10T15:58:37.425Z,8.2
2022-10-10T15:59:43.374Z,8.3
2022-10-10T16:00:47.619Z,8.1
2022-10-10T16:01:53.597Z,8.7
2022-10-10T16:02:57.863Z,8.6
2022-10-10T16:04:02.191Z,8.4
2022-10-10T16:05:06.557Z,9
2022-10-10T16:06:11.009Z,8.5
2022-10-10T16:07:33.119Z,8.6
2022-10-10T16:08:19.609Z,8.7